createdAt,value
2019-01-03T00:00:47.933Z,19.70
2019-01-03T00:03:20.459Z,19.70
2019-01-03T00:06:07.529Z,19.70
2019-01-03T00:08:43.498Z,19.70
2019-01-03T00:11:14.108Z,19.70
2019-01-03T00:13:46.617Z,19.70
2019-01-03T00:16:21.229Z,19.70
2019-01-03T00:18:51.291Z,19.60
2019-01-03T00:21:27.706Z,19.60
2019-01-03T00:24:00.705Z,19.60
2019-01-03T00:26:31.009Z,19.60
2019-01-03T00:29:17.453Z,19.60
2019-01-03T00:32:03.914Z,19.60
2019-01-03T00:34:36.719Z,19.60
2019-01-03T00:37:19.009Z,19.60
2019-01-03T00:39:49.070Z,19.60
2019-01-03T00:42:25.384Z,19.60
2019-01-03T00:45:04.211Z,19.60
2019-01-03T00:47:34.533Z,19.60
2019-01-03T00:50:20.625Z,19.60
2019-01-03T00:53:07.342Z,19.60
2019-01-03T00:55:42.963Z,19.60
2019-01-03T00:58:13.517Z,19.60
2019-01-03T01:00:59.836Z,19.60
2019-01-03T01:03:46.117Z,19.50
2019-01-03T01:06:32.612Z,19.60
2019-01-03T01:09:09.056Z,19.60
2019-01-03T01:11:50.971Z,19.50
2019-01-03T01:14:37.485Z,19.50
2019-01-03T01:17:07.785Z,19.50
2019-01-03T01:19:40.596Z,19.50
2019-01-03T01:22:13.062Z,19.50
2019-01-03T01:24:43.101Z,19.50
2019-01-03T01:27:13.964Z,19.50
2019-01-03T01:30:00.046Z,19.50
2019-01-03T01:32:33.238Z,19.50
2019-01-03T01:35:03.294Z,19.50
2019-01-03T01:37:33.350Z,19.50
2019-01-03T01:40:10.126Z,19.50
2019-01-03T01:42:49.103Z,19.50
2019-01-03T01:45:31.877Z,19.50
2019-01-03T01:48:17.038Z,19.50
2019-01-03T01:51:03.553Z,19.50
2019-01-03T01:53:49.721Z,19.40
2019-01-03T01:56:22.629Z,19.50
2019-01-03T01:58:55.252Z,19.50
2019-01-03T02:01:25.310Z,19.40
2019-01-03T02:03:58.422Z,19.40
2019-01-03T02:06:34.562Z,19.40
2019-01-03T02:09:05.090Z,19.40
2019-01-03T02:11:51.518Z,19.40
2019-01-03T02:14:31.140Z,19.40
2019-01-03T02:17:13.230Z,19.40
2019-01-03T02:19:48.295Z,19.40
2019-01-03T02:22:24.242Z,19.40
2019-01-03T02:24:57.665Z,19.40
2019-01-03T02:27:45.942Z,19.40
2019-01-03T02:30:22.263Z,19.40
2019-01-03T02:32:52.323Z,19.40
2019-01-03T02:35:31.980Z,19.40
2019-01-03T02:38:18.323Z,19.40
2019-01-03T02:40:51.714Z,19.40
2019-01-03T02:43:37.963Z,19.40
2019-01-03T02:46:08.345Z,19.40
2019-01-03T02:48:44.246Z,19.40
2019-01-03T02:51:17.697Z,19.40
2019-01-03T02:53:50.644Z,19.30
2019-01-03T02:56:35.955Z,19.30
2019-01-03T02:59:22.321Z,19.30
2019-01-03T03:01:58.217Z,19.30
2019-01-03T03:04:36.954Z,19.30
2019-01-03T03:07:10.639Z,19.30
2019-01-03T03:09:40.693Z,19.30
2019-01-03T03:12:28.993Z,19.30
2019-01-03T03:15:01.960Z,19.30
2019-01-03T03:17:32.015Z,19.30
2019-01-03T03:20:08.689Z,19.30
2019-01-03T03:22:47.905Z,19.30
2019-01-03T03:25:36.723Z,19.30
2019-01-03T03:28:06.848Z,19.30
2019-01-03T03:30:39.463Z,19.30
2019-01-03T03:33:25.992Z,19.30
2019-01-03T03:36:05.116Z,19.30
2019-01-03T03:38:35.950Z,19.20
2019-01-03T03:41:17.877Z,19.20
2019-01-03T03:44:04.150Z,19.20
2019-01-03T03:46:50.295Z,19.20
2019-01-03T03:49:32.151Z,19.20
2019-01-03T03:52:11.259Z,19.20
2019-01-03T03:54:57.368Z,19.20
2019-01-03T03:57:33.190Z,19.20
2019-01-03T04:00:21.873Z,19.20
2019-01-03T04:02:57.545Z,19.20
2019-01-03T04:05:27.846Z,19.20
2019-01-03T04:08:14.547Z,19.20
2019-01-03T04:10:45.073Z,19.20
2019-01-03T04:13:17.662Z,19.20
2019-01-03T04:15:50.640Z,19.20
2019-01-03T04:18:23.584Z,19.20
2019-01-03T04:20:56.221Z,19.20
2019-01-03T04:23:43.012Z,19.20
2019-01-03T04:26:31.678Z,19.20
2019-01-03T04:29:10.686Z,19.10
2019-01-03T04:31:44.102Z,19.20
2019-01-03T04:34:20.357Z,19.10
2019-01-03T04:36:53.963Z,19.10
2019-01-03T04:39:24.013Z,19.10
2019-01-03T04:42:13.154Z,19.10
2019-01-03T04:44:58.184Z,19.10
2019-01-03T04:47:28.550Z,19.10
2019-01-03T04:50:15.137Z,19.10
2019-01-03T04:52:45.481Z,19.10
2019-01-03T04:55:18.463Z,19.10
2019-01-03T04:57:52.068Z,19.10
2019-01-03T05:00:22.133Z,19.10
2019-01-03T05:02:55.310Z,19.10
2019-01-03T05:05:25.605Z,19.10
2019-01-03T05:07:57.462Z,19.10
2019-01-03T05:10:33.626Z,19.10
2019-01-03T05:13:20.168Z,19.10
2019-01-03T05:16:07.244Z,19.10
2019-01-03T05:18:46.055Z,19.10
2019-01-03T05:21:31.754Z,19.10
2019-01-03T05:24:07.635Z,19.20
2019-01-03T05:26:54.937Z,19.20
2019-01-03T05:29:40.854Z,19.20
2019-01-03T05:32:14.221Z,19.20
2019-01-03T05:34:49.720Z,19.20
2019-01-03T05:37:36.578Z,19.20
2019-01-03T05:40:23.477Z,19.20
2019-01-03T05:42:53.620Z,19.20
2019-01-03T05:45:26.478Z,19.20
2019-01-03T05:47:56.548Z,19.20
2019-01-03T05:50:27.549Z,19.20
2019-01-03T05:53:13.957Z,19.20
2019-01-03T05:56:00.711Z,19.20
2019-01-03T05:58:43.013Z,19.20
2019-01-03T06:01:13.610Z,19.20
2019-01-03T06:03:49.371Z,19.20
2019-01-03T06:06:20.505Z,19.20
2019-01-03T06:09:05.519Z,19.20
2019-01-03T06:11:47.897Z,19.20
2019-01-03T06:14:29.619Z,19.20
2019-01-03T06:17:00.102Z,19.20
2019-01-03T06:19:41.862Z,19.20
2019-01-03T06:22:12.416Z,19.20
2019-01-03T06:24:45.806Z,19.20
2019-01-03T06:27:33.248Z,19.20
2019-01-03T06:30:15.516Z,19.20
2019-01-03T06:33:04.332Z,19.20
2019-01-03T06:35:34.380Z,19.20
2019-01-03T06:38:21.029Z,19.20
2019-01-03T06:41:02.797Z,19.20
2019-01-03T06:43:33.237Z,19.20
2019-01-03T06:46:19.679Z,19.20
2019-01-03T06:48:52.353Z,19.20
2019-01-03T06:51:25.125Z,19.20
2019-01-03T06:53:58.620Z,19.20
2019-01-03T06:56:44.952Z,19.10
2019-01-03T06:59:30.506Z,19.10
2019-01-03T07:02:16.896Z,19.10
2019-01-03T07:05:03.922Z,19.10
2019-01-03T07:07:36.868Z,19.10
2019-01-03T07:10:10.513Z,19.10
2019-01-03T07:12:40.588Z,19.10
2019-01-03T07:15:23.034Z,19.10
2019-01-03T07:17:55.794Z,19.10
2019-01-03T07:20:32.106Z,19.10
2019-01-03T07:23:07.805Z,19.10
2019-01-03T07:25:42.984Z,19.10
2019-01-03T07:28:15.852Z,19.10
2019-01-03T07:30:45.909Z,19.10
2019-01-03T07:33:27.849Z,19.10
2019-01-03T07:36:14.018Z,19.10
2019-01-03T07:39:01.928Z,19.10
2019-01-03T07:41:34.865Z,19.10
2019-01-03T07:44:22.217Z,19.10
2019-01-03T07:47:08.393Z,19.10
2019-01-03T07:49:53.474Z,19.10
2019-01-03T07:52:26.501Z,19.00
2019-01-03T07:55:13.290Z,19.00
2019-01-03T07:57:49.299Z,19.00
2019-01-03T08:00:22.854Z,19.00
2019-01-03T08:02:52.926Z,19.00
2019-01-03T08:05:38.039Z,19.00
2019-01-03T08:08:10.784Z,19.00
2019-01-03T08:10:43.597Z,19.00
2019-01-03T08:13:30.002Z,19.00
2019-01-03T08:16:16.209Z,19.00
2019-01-03T08:18:48.888Z,19.00
2019-01-03T08:21:19.031Z,19.00
2019-01-03T08:24:06.964Z,19.00
2019-01-03T08:26:49.822Z,19.00
2019-01-03T08:29:25.593Z,19.10
2019-01-03T08:31:56.245Z,19.00
2019-01-03T08:34:29.132Z,19.10
2019-01-03T08:37:14.401Z,19.10
2019-01-03T08:40:00.810Z,19.10
2019-01-03T08:42:39.937Z,19.10
2019-01-03T08:45:22.220Z,19.10
2019-01-03T08:48:09.666Z,19.10
2019-01-03T08:50:55.797Z,19.10
2019-01-03T08:53:44.218Z,19.20
2019-01-03T08:56:32.278Z,19.20
2019-01-03T08:59:08.463Z,19.20
2019-01-03T09:01:54.542Z,19.20
2019-01-03T09:04:25.092Z,19.20
2019-01-03T09:07:04.153Z,19.20
2019-01-03T09:09:53.026Z,19.30
2019-01-03T09:12:40.729Z,19.30
2019-01-03T09:15:11.708Z,19.30
2019-01-03T09:17:57.957Z,19.30
2019-01-03T09:20:37.955Z,19.30
2019-01-03T09:23:10.759Z,19.30
2019-01-03T09:25:55.842Z,19.30
2019-01-03T09:28:57.476Z,19.30
2019-01-03T09:31:44.373Z,19.30
2019-01-03T09:34:20.633Z,19.30
2019-01-03T09:37:10.118Z,19.30
2019-01-03T09:39:45.850Z,19.30
2019-01-03T09:42:31.234Z,19.30
2019-01-03T09:44:59.660Z,19.30
2019-01-03T09:47:28.077Z,19.40
2019-01-03T09:49:57.208Z,19.40
2019-01-03T09:52:25.651Z,19.40
2019-01-03T09:54:54.078Z,19.40
2019-01-03T09:57:23.869Z,19.40
2019-01-03T09:59:52.291Z,19.40
2019-01-03T10:02:20.713Z,19.40
2019-01-03T10:04:49.331Z,19.40
2019-01-03T10:07:17.737Z,19.40
2019-01-03T10:09:46.158Z,19.40
2019-01-03T10:12:14.900Z,19.40
2019-01-03T10:14:43.338Z,19.40
2019-01-03T10:17:11.736Z,19.40
2019-01-03T10:19:40.864Z,19.40
2019-01-03T10:22:09.273Z,19.40
2019-01-03T10:24:37.672Z,19.40
2019-01-03T10:27:06.682Z,19.50
2019-01-03T10:29:35.498Z,19.50
2019-01-03T10:32:03.917Z,19.50
2019-01-03T10:34:32.844Z,19.50
2019-01-03T10:37:01.321Z,19.50
2019-01-03T10:39:29.747Z,19.50
2019-01-03T10:41:58.898Z,19.50
2019-01-03T10:44:27.315Z,19.50
2019-01-03T10:46:55.729Z,19.50
2019-01-03T10:49:24.545Z,19.50
2019-01-03T10:51:52.966Z,19.50
2019-01-03T10:54:21.410Z,19.50
2019-01-03T10:56:50.197Z,19.50
2019-01-03T10:59:18.614Z,19.50
2019-01-03T11:01:47.044Z,19.50
2019-01-03T11:04:16.453Z,19.40
2019-01-03T11:06:44.869Z,19.30
2019-01-03T11:09:13.289Z,19.40
2019-01-03T11:11:41.805Z,19.40
2019-01-03T11:14:10.238Z,19.50
2019-01-03T11:16:38.650Z,19.50
2019-01-03T11:19:07.463Z,19.50
2019-01-03T11:21:35.873Z,19.50
2019-01-03T11:24:04.290Z,19.60
2019-01-03T11:26:33.012Z,19.60
2019-01-03T11:29:01.431Z,19.60
2019-01-03T11:31:30.389Z,19.60
2019-01-03T11:33:59.061Z,19.60
2019-01-03T11:36:27.473Z,19.60
2019-01-03T11:38:55.896Z,19.60
2019-01-03T11:41:24.723Z,19.60
2019-01-03T11:43:53.124Z,19.60
2019-01-03T11:46:21.540Z,19.60
2019-01-03T11:48:50.672Z,19.60
2019-01-03T11:51:19.111Z,19.60
2019-01-03T11:53:47.632Z,19.60
2019-01-03T11:56:16.320Z,19.60
2019-01-03T11:58:44.735Z,19.60
2019-01-03T12:01:13.158Z,19.60
2019-01-03T12:03:42.055Z,19.60
2019-01-03T12:06:10.466Z,19.60
2019-01-03T12:08:38.901Z,19.60
2019-01-03T12:11:07.617Z,19.60
2019-01-03T12:13:36.026Z,19.60
2019-01-03T12:16:04.435Z,19.60
2019-01-03T12:18:33.081Z,19.60
2019-01-03T12:21:01.485Z,19.60
2019-01-03T12:23:29.909Z,19.60
2019-01-03T12:26:00.571Z,19.60
2019-01-03T12:28:29.862Z,19.60
2019-01-03T12:31:01.413Z,19.60
2019-01-03T12:33:29.821Z,19.60
2019-01-03T12:35:58.255Z,19.60
2019-01-03T12:38:27.154Z,19.60
2019-01-03T12:40:55.562Z,19.60
2019-01-03T12:43:23.988Z,19.60
2019-01-03T12:45:53.430Z,19.60
2019-01-03T12:48:21.850Z,19.60
2019-01-03T12:50:50.262Z,19.60
2019-01-03T12:53:19.085Z,19.60
2019-01-03T12:55:47.493Z,19.60
2019-01-03T12:58:15.907Z,19.60
2019-01-03T13:00:44.388Z,19.60
2019-01-03T13:03:12.855Z,19.60
2019-01-03T13:05:41.262Z,19.60
2019-01-03T13:08:10.777Z,19.60
2019-01-03T13:10:39.208Z,19.60
2019-01-03T13:13:07.731Z,19.60
2019-01-03T13:15:36.208Z,19.60
2019-01-03T13:18:04.794Z,19.60
2019-01-03T13:20:33.213Z,19.60
2019-01-03T13:23:02.085Z,19.60
2019-01-03T13:25:30.513Z,19.60
2019-01-03T13:27:58.924Z,19.70
2019-01-03T13:30:28.265Z,19.70
2019-01-03T13:32:58.489Z,19.70
2019-01-03T13:35:26.909Z,19.50
2019-01-03T13:37:55.553Z,19.60
2019-01-03T13:40:23.967Z,19.60
2019-01-03T13:42:52.378Z,19.60
2019-01-03T13:45:21.499Z,19.60
2019-01-03T13:47:49.910Z,19.60
2019-01-03T13:50:18.340Z,19.60
2019-01-03T13:52:47.356Z,19.60
2019-01-03T13:55:15.762Z,19.60
2019-01-03T13:57:44.182Z,19.60
2019-01-03T14:00:12.957Z,19.60
2019-01-03T14:02:41.371Z,19.60
2019-01-03T14:05:09.806Z,19.60
2019-01-03T14:07:38.745Z,19.60
2019-01-03T14:10:07.606Z,19.60
2019-01-03T14:12:36.036Z,19.60
2019-01-03T14:15:06.966Z,19.60
2019-01-03T14:17:35.437Z,19.60
2019-01-03T14:20:04.900Z,19.60
2019-01-03T14:22:33.739Z,19.60
2019-01-03T14:25:02.142Z,19.60
2019-01-03T14:27:30.564Z,19.60
2019-01-03T14:29:59.430Z,19.60
2019-01-03T14:32:27.960Z,19.50
2019-01-03T14:34:57.590Z,19.60
2019-01-03T14:37:26.996Z,19.50
2019-01-03T14:39:55.398Z,19.60
2019-01-03T14:42:23.816Z,19.50
2019-01-03T14:44:52.637Z,19.50
2019-01-03T14:47:21.091Z,19.50
2019-01-03T14:49:49.502Z,19.50
2019-01-03T14:52:18.242Z,19.50
2019-01-03T14:54:46.823Z,19.50
2019-01-03T14:57:15.255Z,19.50
2019-01-03T14:59:49.877Z,19.50
2019-01-03T15:02:18.340Z,19.50
2019-01-03T15:04:46.766Z,19.50
2019-01-03T15:07:15.711Z,19.50
2019-01-03T15:09:44.119Z,19.50
2019-01-03T15:12:12.529Z,19.50
2019-01-03T15:14:41.292Z,19.60
2019-01-03T15:17:09.694Z,19.60
2019-01-03T15:19:38.216Z,19.60
2019-01-03T15:22:07.226Z,19.60
2019-01-03T15:24:35.641Z,19.60
2019-01-03T15:27:04.084Z,19.60
2019-01-03T15:29:33.303Z,19.60
2019-01-03T15:32:01.781Z,19.70
2019-01-03T15:34:31.408Z,19.70
2019-01-03T15:37:00.479Z,19.70
2019-01-03T15:39:28.957Z,19.70
2019-01-03T15:41:57.364Z,19.70
2019-01-03T15:44:26.032Z,19.70
2019-01-03T15:46:54.497Z,19.70
2019-01-03T15:49:22.960Z,19.70
2019-01-03T15:51:52.085Z,19.70
2019-01-03T15:54:20.917Z,19.80
2019-01-03T15:56:49.395Z,19.70
2019-01-03T15:59:18.037Z,19.80
2019-01-03T16:01:46.473Z,19.80
2019-01-03T16:04:14.879Z,19.80
2019-01-03T16:06:43.620Z,19.80
2019-01-03T16:09:12.037Z,19.80
2019-01-03T16:11:40.545Z,19.80
2019-01-03T16:14:09.477Z,19.70
2019-01-03T16:16:37.894Z,19.80
2019-01-03T16:19:06.310Z,19.80
2019-01-03T16:21:35.094Z,19.80
2019-01-03T16:24:03.531Z,19.90
2019-01-03T16:26:31.929Z,19.90
2019-01-03T16:29:00.389Z,19.90
2019-01-03T16:31:28.798Z,19.90
2019-01-03T16:33:57.217Z,19.90
2019-01-03T16:36:26.899Z,20.00
2019-01-03T16:38:55.874Z,19.90
2019-01-03T16:41:24.292Z,19.90
2019-01-03T16:43:53.152Z,19.90
2019-01-03T16:46:21.564Z,19.90
2019-01-03T16:48:49.979Z,19.90
2019-01-03T16:51:18.608Z,19.90
2019-01-03T16:53:47.047Z,19.90
2019-01-03T16:56:15.438Z,19.90
2019-01-03T16:58:44.608Z,19.80
2019-01-03T17:01:13.051Z,19.90
2019-01-03T17:03:41.491Z,19.80
2019-01-03T17:06:09.967Z,19.80
2019-01-03T17:08:38.391Z,19.80
2019-01-03T17:11:06.814Z,19.80
2019-01-03T17:13:35.358Z,19.80
2019-01-03T17:16:03.784Z,19.80
2019-01-03T17:18:32.193Z,19.80
2019-01-03T17:21:01.472Z,19.80
2019-01-03T17:23:29.974Z,19.80
2019-01-03T17:25:58.393Z,19.80
2019-01-03T17:28:27.074Z,19.80
2019-01-03T17:30:55.506Z,19.80
2019-01-03T17:33:24.013Z,19.80
2019-01-03T17:35:52.719Z,19.80
2019-01-03T17:38:21.146Z,19.80
2019-01-03T17:40:52.525Z,19.80
2019-01-03T17:43:21.136Z,19.80
2019-01-03T17:45:49.606Z,19.80
2019-01-03T17:48:18.013Z,19.80
2019-01-03T17:50:46.514Z,19.80
2019-01-03T17:53:14.913Z,19.80
2019-01-03T17:55:43.342Z,19.80
2019-01-03T17:58:12.106Z,19.80
2019-01-03T18:00:40.769Z,19.80
2019-01-03T18:03:09.191Z,19.80
2019-01-03T18:05:37.834Z,19.80
2019-01-03T18:08:06.263Z,19.80
2019-01-03T18:10:34.678Z,19.80
2019-01-03T18:13:03.158Z,19.80
2019-01-03T18:15:31.574Z,19.80
2019-01-03T18:18:00.001Z,19.80
2019-01-03T18:20:30.858Z,19.80
2019-01-03T18:22:59.273Z,19.80
2019-01-03T18:25:27.681Z,19.80
2019-01-03T18:27:56.439Z,19.80
2019-01-03T18:30:24.845Z,19.80
2019-01-03T18:32:53.259Z,19.80
2019-01-03T18:35:22.045Z,19.80
2019-01-03T18:37:50.471Z,19.70
2019-01-03T18:40:18.894Z,19.70
2019-01-03T18:42:49.507Z,19.80
2019-01-03T18:45:18.157Z,19.70
2019-01-03T18:47:46.569Z,19.70
2019-01-03T18:50:18.845Z,19.80
2019-01-03T18:52:45.524Z,19.80
2019-01-03T18:55:13.953Z,19.80
2019-01-03T18:57:42.502Z,19.80
2019-01-03T19:00:12.045Z,19.70
2019-01-03T19:02:40.453Z,19.80
2019-01-03T19:05:10.031Z,19.70
2019-01-03T19:07:38.447Z,19.70
2019-01-03T19:10:09.109Z,19.70
2019-01-03T19:12:37.573Z,19.70
2019-01-03T19:15:08.029Z,19.70
2019-01-03T19:17:36.516Z,19.70
2019-01-03T19:20:08.181Z,19.70
2019-01-03T19:22:36.602Z,19.70
2019-01-03T19:25:08.096Z,19.70
2019-01-03T19:27:37.958Z,19.70
2019-01-03T19:30:09.470Z,19.70
2019-01-03T19:32:37.961Z,19.80
2019-01-03T19:35:08.810Z,19.70
2019-01-03T19:37:37.232Z,19.80
2019-01-03T19:40:11.195Z,19.80
2019-01-03T19:42:40.716Z,19.70
2019-01-03T19:45:11.563Z,19.70
2019-01-03T19:47:40.064Z,19.70
2019-01-03T19:50:14.374Z,19.70
2019-01-03T19:52:42.813Z,19.70
2019-01-03T19:55:11.231Z,19.70
2019-01-03T19:57:39.790Z,19.70
2019-01-03T20:00:14.043Z,19.70
2019-01-03T20:02:42.453Z,19.70
2019-01-03T20:05:11.178Z,19.70
2019-01-03T20:07:40.054Z,19.70
2019-01-03T20:10:11.016Z,19.70
2019-01-03T20:12:39.892Z,19.70
2019-01-03T20:15:11.022Z,19.70
2019-01-03T20:17:39.577Z,19.70
2019-01-03T20:20:10.393Z,19.70
2019-01-03T20:22:39.105Z,19.70
2019-01-03T20:25:09.607Z,19.70
2019-01-03T20:27:38.290Z,19.70
2019-01-03T20:30:09.758Z,19.70
2019-01-03T20:32:38.350Z,19.70
2019-01-03T20:35:07.815Z,19.70
2019-01-03T20:37:36.245Z,19.70
2019-01-03T20:40:07.112Z,19.70
2019-01-03T20:42:35.717Z,19.70
2019-01-03T20:45:06.760Z,19.70
2019-01-03T20:47:35.596Z,19.70
2019-01-03T20:50:06.596Z,19.70
2019-01-03T20:52:35.118Z,19.80
2019-01-03T20:55:03.911Z,19.80
2019-01-03T20:57:32.769Z,19.70
2019-01-03T21:00:01.183Z,19.70
2019-01-03T21:02:29.621Z,19.70
2019-01-03T21:04:58.603Z,19.70
2019-01-03T21:07:27.075Z,19.60
2019-01-03T21:09:55.627Z,19.70
2019-01-03T21:12:25.366Z,19.70
2019-01-03T21:14:53.793Z,19.70
2019-01-03T21:17:22.318Z,19.70
2019-01-03T21:19:51.293Z,19.70
2019-01-03T21:22:19.719Z,19.70
2019-01-03T21:24:48.137Z,19.70
2019-01-03T21:27:17.099Z,19.70
2019-01-03T21:29:45.546Z,19.70
2019-01-03T21:32:14.037Z,19.70
2019-01-03T21:35:34.432Z,19.70
2019-01-03T21:38:07.392Z,19.70
2019-01-03T21:40:48.825Z,19.70
2019-01-03T21:43:23.425Z,19.70
2019-01-03T21:45:59.076Z,19.70
2019-01-03T21:48:52.992Z,19.70
2019-01-03T21:51:48.470Z,19.70
2019-01-03T22:00:55.963Z,19.70
2019-01-03T22:03:30.893Z,19.70
2019-01-03T22:06:25.444Z,19.60
2019-01-03T22:15:54.442Z,19.60
2019-01-03T22:21:30.329Z,19.70
2019-01-03T22:24:40.895Z,19.70
2019-01-03T22:37:35.754Z,19.60
2019-01-03T22:40:23.780Z,19.60
2019-01-03T22:49:24.239Z,19.60
2019-01-03T22:51:57.663Z,19.60
2019-01-03T22:54:40.265Z,19.60
2019-01-03T22:57:35.156Z,19.60
2019-01-03T23:00:28.792Z,19.60
2019-01-03T23:03:05.087Z,19.60
2019-01-03T23:06:01.939Z,19.60
2019-01-03T23:33:27.733Z,19.50
2019-01-03T23:48:44.220Z,19.50
